Airfield :
LOGIN :

Register | Disclaimer

   EN    FR    IT 

 










Legend :    VFR   Marginal VFR   IFR   Intensive IFR   Very Intensive IFR
Visi :
Ceiling :
>= 8 km
>= 3000ft
5 to 8 km
1000 to 3000 ft
1500m to 5 km
500 to 1000 ft
800 to 1500m
200 to 500 ft
< 800m
< 200 ft
Symbols :   Thunderstorms  Fog  Heavy snow  Heavy precipitations  Wind > 20 kt
SIGMETs :     Misc.  Thunderstorms  Icing  Turbulence  Mountain Waves  Volcanic Ashes






- Airport Elevation : 1306 ft
- IATA code : ACH


LSZR - Alten Rhein

CURRENT METAR :
  • 190550Z 29005KT CAVOK 21/17 Q1013 RMK B

EXPIRED METARs :
  • 190520Z 28004KT CAVOK 20/16 Q1013 RMK B
  • 190450Z VRB03KT CAVOK 19/16 Q1014 RMK A
  • 190420Z VRB03KT CAVOK 19/16 Q1014 RMK A
  • 190350Z AUTO 28005KT CAVOK 17/15 Q1014
  • 190320Z AUTO VRB02KT CAVOK 17/14 Q1014
  • 190250Z AUTO VRB02KT CAVOK 17/14 Q1014
  • 190220Z AUTO 28004KT 240V310 CAVOK 17/13 Q1014
  • 190150Z AUTO VRB02KT CAVOK 18/14 Q1013
  • 190120Z AUTO VRB02KT CAVOK 19/14 Q1013

TAF TAF LSZR
Valid from the 19 at 06:00 until the 19 at 15:00 UTC


190525Z 1906/1915 VRB02KT CAVOK
PROB40
TEMPO 1912/1915 9999 FEW080
ATIS : +41 71 858 51 66



MET'MAP, your aeronautical weather chart ! - Copyright ORBIFLY December 2007 - Disclaimer

ORBIFLY MET'MAP TEAM :

Programming & Development : Alexandra Zaïnal
Original concept : Baudouin d'Aumeries
Technical & hardware support : Manuel Goepfert
Assistance : Marc-Olivier Méhu




SOURCES & CREDITS :

   NOAA